Florence, Arkansas
Current Conditions -  °F | °C
As of 4:53 AM on Sunday 26 Oct 2014 (Local Time) from KLLQ Reporting Station
Clear Clear  
Wind Chill: 65°   Ceiling: Unl
Heat Index: 65°   Visibility: 9mi
Dew Point: 61°   Wind: 5mph
Humidity: 87%   Direction: 270°W
Pressure: 30.01"   Gusts: NA
Location:  33.5819°N, 91.7907°W
Report Text: KLLQ 260953Z AUTO 27004KT 9SM CLR 18/16 A3001 RMK AO2 SLP160 T01830161
Loading
Personal Weather Stations






























Interactive Weather Map
Tropical Storm Tracking
New forecast layout! Learn more

10-Day Weather Forecast

Advertisements
Track Severe Weather on mobile